Main page
METAR-TAF:

METAR-TAF

Airports :

Kos, Greece

Kos International Airport

latitude: 36-47N, longitude: 027-04E, elevation: 129 m

Current weather observation

The report was made 35 minutes ago, at 09:20 UTC
Wind 13 kt from the West
Temperature 19°C
Humidity 73%
Pressure 1017 hPa
Visibility 10 km or more
Few clouds at a height of 800 ft

METAR: LGKO 190920Z 28013KT 9999 FEW008 19/14 Q1017

Time: 12:55 (09:55 UTC)

Forecast

The report was made 4 hours and 55 minutes ago, at 05:00 UTC
Forecast valid from 19 at 06 UTC to 20 at 06 UTC
Wind 15 kt from the Northwest
Visibility: 7000 m
Few clouds at a height of 1000 ft

TAF: LGKO 190500Z 1906/2006 31015KT 7000 FEW010

Weather observations and forecasts of more than 4000 airports (METAR and TAF reports).

The available stations are represented by yellow and red dots on the map.

Hover mouse over dot to see the name of the station.

Then click to see weather observations and forecasts.

To change the map : click on the green buttons with a black cross to zoom in, on the green button with a dash to zoom out, or on the green arrows for adjacent maps.


METAR-TAF: